Time;durP1;ratioP1;P1;durP2;ratioP2;P2;SDS_P1;SDS_P2;PMS_P1;PMS_P2;Temp;Humidity;BMP_temperature;BMP_pressure;BME280_temperature;BME280_humidity;BME280_pressure;Samples;Min_cycle;Max_cycle;Signal;HPM_P1;HPM_P2
2022/08/05 00:02:07;;;;;;;;;;;20.90;84.40;;;;;;5067537;28;20283;-79
2022/08/05 00:04:32;;;;;;;;;;;20.80;85.00;;;;;;5077313;28;19912;-78
2022/08/05 00:06:58;;;;;;;;;;;20.90;83.60;;;;;;5075553;28;19920;-77
2022/08/05 00:11:56;;;;;;;;;;;20.80;82.70;;;;;;5029421;28;19941;-84
2022/08/05 00:14:22;;;;;;;;;;;20.70;82.40;;;;;;4990365;28;19918;-84
2022/08/05 00:16:47;;;;;;;;;;;20.60;83.10;;;;;;4986445;28;19913;-85
2022/08/05 00:19:12;;;;;;;;;;;20.50;83.00;;;;;;4994114;28;20308;-85
2022/08/05 00:21:38;;;;;;;;;;;20.60;83.80;;;;;;4970465;28;19922;-85
2022/08/05 00:24:04;;;;;;;;;;;20.60;83.50;;;;;;4972456;28;19997;-84
2022/08/05 00:26:29;;;;;;;;;;;20.60;82.50;;;;;;4987148;28;19937;-84
2022/08/05 00:28:54;;;;;;;;;;;20.60;82.90;;;;;;4985556;28;19914;-85
2022/08/05 00:31:20;;;;;;;;;;;20.60;81.90;;;;;;4969567;28;19940;-83
2022/08/05 00:33:45;;;;;;;;;;;20.80;80.60;;;;;;4971666;28;19917;-84
2022/08/05 00:36:11;;;;;;;;;;;20.90;79.70;;;;;;4983066;28;19924;-81
2022/08/05 00:38:38;;;;;;;;;;;20.80;79.50;;;;;;4967356;28;20284;-84
2022/08/05 00:41:06;;;;;;;;;;;20.70;81.40;;;;;;4983164;28;19918;-84
2022/08/05 00:43:32;;;;;;;;;;;20.60;81.00;;;;;;4974431;28;19976;-84
2022/08/05 00:45:58;;;;;;;;;;;20.50;81.10;;;;;;4988398;28;20431;-84
2022/08/05 00:48:23;;;;;;;;;;;20.40;80.90;;;;;;4973666;28;19964;-84
2022/08/05 00:50:50;;;;;;;;;;;20.30;82.30;;;;;;4963492;28;19919;-83
2022/08/05 00:53:17;;;;;;;;;;;20.40;82.50;;;;;;4985533;28;19914;-84
2022/08/05 00:55:42;;;;;;;;;;;20.40;83.00;;;;;;4969364;28;19913;-83
2022/08/05 00:58:09;;;;;;;;;;;20.30;83.20;;;;;;4967296;28;19921;-84
2022/08/05 01:00:34;;;;;;;;;;;20.30;82.60;;;;;;4965918;28;19933;-84
2022/08/05 01:03:00;;;;;;;;;;;20.30;81.90;;;;;;4974736;28;19914;-84
2022/08/05 01:05:25;;;;;;;;;;;20.40;82.40;;;;;;4972500;28;19922;-84
2022/08/05 01:07:51;;;;;;;;;;;20.40;83.30;;;;;;4971458;28;20331;-84
2022/08/05 01:10:23;;;;;;;;;;;20.40;82.00;;;;;;4974329;28;20384;-84
2022/08/05 01:12:52;;;;;;;;;;;20.50;80.60;;;;;;4985673;28;19926;-84
2022/08/05 01:15:20;;;;;;;;;;;20.50;80.40;;;;;;4997044;28;19968;-84
2022/08/05 01:17:49;;;;;;;;;;;20.50;81.70;;;;;;4973124;28;20309;-84
2022/08/05 01:20:23;;;;;;;;;;;20.40;81.70;;;;;;4978742;28;19918;-84
2022/08/05 01:23:08;;;;;;;;;;;20.50;82.40;;;;;;4989996;28;19924;-84
2022/08/05 01:25:42;;;;;;;;;;;20.50;82.80;;;;;;4994843;28;20432;-84
2022/08/05 01:28:20;;;;;;;;;;;20.50;83.30;;;;;;4998471;28;19990;-84
2022/08/05 01:30:58;;;;;;;;;;;20.50;82.00;;;;;;4986471;28;19918;-85
2022/08/05 01:33:28;;;;;;;;;;;20.50;80.90;;;;;;4993512;28;19960;-84
2022/08/05 01:35:55;;;;;;;;;;;20.50;79.80;;;;;;4986604;28;19920;-83
2022/08/05 01:38:21;;;;;;;;;;;20.50;78.80;;;;;;4982465;28;19914;-84
2022/08/05 01:40:47;;;;;;;;;;;20.50;79.50;;;;;;4973128;28;19970;-84
2022/08/05 01:43:12;;;;;;;;;;;20.50;77.80;;;;;;4986394;28;19921;-83
2022/08/05 01:45:38;;;;;;;;;;;20.50;78.80;;;;;;5013726;28;19925;-84
2022/08/05 01:48:05;;;;;;;;;;;20.60;78.10;;;;;;4999523;28;19909;-84
2022/08/05 01:50:33;;;;;;;;;;;20.50;80.00;;;;;;4991364;28;19925;-84
2022/08/05 01:53:01;;;;;;;;;;;20.70;78.20;;;;;;4989271;28;20584;-84
2022/08/05 01:55:27;;;;;;;;;;;20.70;78.20;;;;;;4973572;28;19921;-85
2022/08/05 01:57:53;;;;;;;;;;;20.80;77.70;;;;;;4992598;28;19920;-85
2022/08/05 02:00:19;;;;;;;;;;;20.90;77.50;;;;;;4972271;28;19918;-85
2022/08/05 02:02:52;;;;;;;;;;;20.70;78.80;;;;;;4968698;28;19996;-85
2022/08/05 02:05:19;;;;;;;;;;;20.70;78.40;;;;;;4999051;28;19914;-85
2022/08/05 02:07:44;;;;;;;;;;;20.80;77.90;;;;;;4989168;28;19918;-84
2022/08/05 02:10:10;;;;;;;;;;;20.80;76.30;;;;;;4988714;28;20335;-85
2022/08/05 02:12:35;;;;;;;;;;;20.70;77.00;;;;;;4968106;28;19918;-85
2022/08/05 02:15:06;;;;;;;;;;;20.60;78.50;;;;;;4988865;28;19925;-83
2022/08/05 02:17:38;;;;;;;;;;;20.70;78.00;;;;;;4989611;28;19914;-85
2022/08/05 02:20:06;;;;;;;;;;;20.60;77.90;;;;;;4969532;28;19918;-86
2022/08/05 02:22:35;;;;;;;;;;;20.80;77.50;;;;;;4988503;28;19921;-85
2022/08/05 02:25:04;;;;;;;;;;;20.70;77.70;;;;;;4976455;28;20004;-87
2022/08/05 02:27:33;;;;;;;;;;;20.70;78.30;;;;;;4972093;28;20381;-85
2022/08/05 02:29:59;;;;;;;;;;;20.70;78.00;;;;;;4982235;28;19914;-86
2022/08/05 02:32:26;;;;;;;;;;;20.60;78.60;;;;;;4969322;28;19988;-85
2022/08/05 02:34:52;;;;;;;;;;;20.60;78.80;;;;;;4980441;28;19924;-86
2022/08/05 02:37:18;;;;;;;;;;;20.60;77.60;;;;;;4994112;28;19900;-85
2022/08/05 02:39:44;;;;;;;;;;;20.60;77.60;;;;;;4973658;28;19914;-85
2022/08/05 02:42:10;;;;;;;;;;;20.60;77.60;;;;;;4990166;28;19918;-85
2022/08/05 02:44:37;;;;;;;;;;;20.50;78.20;;;;;;4971099;28;19917;-85
2022/08/05 02:47:07;;;;;;;;;;;20.50;79.10;;;;;;4992085;28;19972;-85
2022/08/05 02:49:34;;;;;;;;;;;20.60;77.60;;;;;;4968014;28;19913;-85
2022/08/05 02:52:00;;;;;;;;;;;20.60;77.80;;;;;;4975241;28;20005;-85
2022/08/05 02:54:26;;;;;;;;;;;20.60;77.20;;;;;;4974049;28;19914;-85
2022/08/05 02:56:51;;;;;;;;;;;20.50;77.40;;;;;;4991699;28;19933;-85
2022/08/05 02:59:17;;;;;;;;;;;20.50;77.70;;;;;;4973308;28;19914;-85
2022/08/05 03:01:43;;;;;;;;;;;20.40;77.80;;;;;;4970933;28;20017;-85
2022/08/05 03:04:13;;;;;;;;;;;20.40;77.60;;;;;;4965974;28;20509;-85
2022/08/05 03:06:39;;;;;;;;;;;20.20;78.80;;;;;;4967789;28;20009;-83
2022/08/05 03:09:05;;;;;;;;;;;20.00;79.70;;;;;;4990178;28;20401;-83
2022/08/05 03:11:31;;;;;;;;;;;20.00;81.00;;;;;;4992557;28;19941;-81
2022/08/05 03:13:56;;;;;;;;;;;20.10;79.90;;;;;;4976181;28;20008;-83
2022/08/05 03:16:21;;;;;;;;;;;20.00;81.70;;;;;;4973386;28;20396;-83
2022/08/05 03:18:47;;;;;;;;;;;19.90;81.90;;;;;;4984157;28;19920;-83
2022/08/05 03:21:13;;;;;;;;;;;19.90;82.00;;;;;;4992854;28;19917;-83
2022/08/05 03:23:41;;;;;;;;;;;19.90;81.70;;;;;;4990014;28;20405;-83
2022/08/05 03:26:06;;;;;;;;;;;20.00;82.00;;;;;;4974397;28;20289;-83
2022/08/05 03:28:32;;;;;;;;;;;19.90;81.90;;;;;;4973265;28;19925;-83
2022/08/05 03:30:58;;;;;;;;;;;20.00;82.60;;;;;;4967913;28;19972;-82
2022/08/05 03:33:25;;;;;;;;;;;20.00;83.20;;;;;;4993498;28;19914;-83
2022/08/05 03:35:50;;;;;;;;;;;20.00;83.30;;;;;;4979109;28;19921;-83
2022/08/05 03:38:16;;;;;;;;;;;20.00;83.40;;;;;;4991745;28;19922;-82
2022/08/05 03:40:42;;;;;;;;;;;20.00;82.70;;;;;;4975101;28;19929;-83
2022/08/05 03:43:07;;;;;;;;;;;19.90;83.60;;;;;;4968050;28;19921;-83
2022/08/05 03:45:33;;;;;;;;;;;19.80;83.60;;;;;;4969746;28;19922;-84
2022/08/05 03:47:58;;;;;;;;;;;19.80;84.00;;;;;;4987098;28;20288;-84
2022/08/05 03:50:27;;;;;;;;;;;19.70;83.30;;;;;;4965386;28;19914;-84
2022/08/05 03:53:11;;;;;;;;;;;19.70;84.00;;;;;;4989381;28;19914;-84
2022/08/05 03:55:39;;;;;;;;;;;19.50;84.60;;;;;;4991914;28;20025;-84
2022/08/05 03:58:08;;;;;;;;;;;19.50;84.50;;;;;;5002103;28;19913;-83
2022/08/05 04:00:33;;;;;;;;;;;19.70;84.20;;;;;;4997034;28;19918;-83
2022/08/05 04:03:01;;;;;;;;;;;19.60;83.80;;;;;;4969685;28;19924;-83
2022/08/05 04:05:29;;;;;;;;;;;19.40;85.60;;;;;;4975359;28;19914;-82
2022/08/05 04:07:55;;;;;;;;;;;19.20;86.00;;;;;;4992364;28;19914;-82
2022/08/05 04:10:20;;;;;;;;;;;19.20;86.60;;;;;;4991047;28;19932;-82
2022/08/05 04:12:46;;;;;;;;;;;19.10;87.50;;;;;;4972898;28;19957;-82
2022/08/05 04:15:11;;;;;;;;;;;19.00;87.70;;;;;;4974154;28;20381;-83
2022/08/05 04:17:37;;;;;;;;;;;19.00;87.10;;;;;;4972701;28;20416;-82
2022/08/05 04:20:03;;;;;;;;;;;19.00;87.70;;;;;;4980072;28;20313;-83
2022/08/05 04:22:28;;;;;;;;;;;19.10;88.60;;;;;;4985613;28;19914;-82
2022/08/05 04:24:53;;;;;;;;;;;19.10;88.60;;;;;;4975074;28;19914;-83
2022/08/05 04:27:19;;;;;;;;;;;19.20;88.40;;;;;;4988214;28;19917;-83
2022/08/05 04:29:44;;;;;;;;;;;19.30;88.60;;;;;;4964134;28;19918;-83
2022/08/05 04:32:10;;;;;;;;;;;19.50;88.50;;;;;;4971424;28;19966;-83
2022/08/05 04:34:35;;;;;;;;;;;19.50;87.70;;;;;;4962024;28;19914;-83
2022/08/05 04:37:02;;;;;;;;;;;19.60;87.80;;;;;;4959856;28;19918;-83
2022/08/05 04:39:27;;;;;;;;;;;19.60;87.40;;;;;;4983738;28;19914;-83
2022/08/05 04:41:53;;;;;;;;;;;19.60;87.50;;;;;;4964571;28;19932;-82
2022/08/05 04:44:18;;;;;;;;;;;19.60;87.70;;;;;;4962499;28;20337;-83
2022/08/05 04:46:44;;;;;;;;;;;19.60;87.30;;;;;;4985627;28;20507;-82
2022/08/05 04:49:09;;;;;;;;;;;19.60;87.30;;;;;;4985208;28;19950;-83
2022/08/05 04:51:35;;;;;;;;;;;19.70;85.70;;;;;;4986809;28;19925;-83
2022/08/05 04:54:00;;;;;;;;;;;19.60;86.00;;;;;;4987280;28;19961;-83
2022/08/05 04:56:26;;;;;;;;;;;19.60;85.10;;;;;;5008353;28;19953;-82
2022/08/05 04:58:51;;;;;;;;;;;19.50;86.30;;;;;;4989246;28;19918;-83
2022/08/05 05:01:17;;;;;;;;;;;19.50;85.70;;;;;;4987372;28;19941;-84
2022/08/05 05:03:42;;;;;;;;;;;19.40;86.20;;;;;;4993170;28;19918;-83
2022/08/05 05:06:11;;;;;;;;;;;19.40;86.20;;;;;;4989667;28;20009;-81
2022/08/05 05:08:37;;;;;;;;;;;19.40;86.30;;;;;;4990477;28;19918;-82
2022/08/05 05:11:03;;;;;;;;;;;19.40;86.50;;;;;;4987780;28;19968;-82
2022/08/05 05:13:28;;;;;;;;;;;19.30;86.70;;;;;;4979565;28;19914;-79
2022/08/05 05:15:54;;;;;;;;;;;19.40;86.40;;;;;;4993978;28;19967;-83
2022/08/05 05:18:19;;;;;;;;;;;19.30;86.50;;;;;;4991984;28;19910;-81
2022/08/05 05:20:45;;;;;;;;;;;19.30;86.70;;;;;;4988597;28;19937;-82
2022/08/05 05:23:12;;;;;;;;;;;19.40;86.60;;;;;;4978775;28;19913;-82
2022/08/05 05:25:39;;;;;;;;;;;19.40;86.60;;;;;;4992286;28;19953;-83
2022/08/05 05:28:05;;;;;;;;;;;19.30;87.20;;;;;;4991641;28;19924;-82
2022/08/05 05:30:30;;;;;;;;;;;19.40;87.10;;;;;;4975665;28;19918;-82
2022/08/05 05:32:56;;;;;;;;;;;19.40;86.70;;;;;;4969948;28;19937;-83
2022/08/05 05:35:21;;;;;;;;;;;19.30;86.60;;;;;;4979133;28;19918;-83
2022/08/05 05:37:51;;;;;;;;;;;19.20;87.00;;;;;;4989062;28;19941;-82
2022/08/05 05:40:17;;;;;;;;;;;19.30;87.80;;;;;;4971525;28;20289;-84
2022/08/05 05:42:43;;;;;;;;;;;19.50;86.60;;;;;;4992658;28;21073;-81
2022/08/05 05:45:09;;;;;;;;;;;19.50;86.40;;;;;;4975370;28;20061;-82
2022/08/05 05:47:34;;;;;;;;;;;19.50;85.70;;;;;;4989107;28;19922;-83
2022/08/05 05:50:00;;;;;;;;;;;19.40;86.20;;;;;;4977072;28;19945;-82
2022/08/05 05:52:25;;;;;;;;;;;19.50;85.80;;;;;;4976124;28;19922;-82
2022/08/05 05:54:51;;;;;;;;;;;19.50;85.80;;;;;;4988473;28;19916;-83
2022/08/05 05:57:16;;;;;;;;;;;19.30;86.50;;;;;;4974924;28;19922;-83
2022/08/05 05:59:42;;;;;;;;;;;19.10;87.40;;;;;;4990587;28;20001;-84
2022/08/05 06:02:07;;;;;;;;;;;19.20;87.40;;;;;;4970771;28;20024;-84
2022/08/05 06:04:33;;;;;;;;;;;19.00;87.60;;;;;;4974944;28;19949;-83
2022/08/05 06:06:58;;;;;;;;;;;19.00;89.00;;;;;;4987123;28;19918;-83
2022/08/05 06:09:24;;;;;;;;;;;19.00;89.40;;;;;;4973164;28;20004;-84
2022/08/05 06:11:49;;;;;;;;;;;19.00;89.90;;;;;;4991657;28;19921;-83
2022/08/05 06:14:14;;;;;;;;;;;19.10;89.80;;;;;;4965400;28;19928;-84
2022/08/05 06:16:40;;;;;;;;;;;19.10;89.60;;;;;;4969009;28;20396;-83
2022/08/05 06:19:05;;;;;;;;;;;19.10;89.80;;;;;;4969519;28;19925;-83
2022/08/05 06:21:33;;;;;;;;;;;19.20;89.70;;;;;;4992616;28;19914;-83
2022/08/05 06:23:59;;;;;;;;;;;19.10;90.00;;;;;;4994093;28;19933;-82
2022/08/05 06:26:25;;;;;;;;;;;19.10;89.90;;;;;;4988395;28;20373;-84
2022/08/05 06:28:50;;;;;;;;;;;19.10;90.00;;;;;;4964479;28;19918;-86
2022/08/05 06:31:16;;;;;;;;;;;19.00;90.20;;;;;;4974360;28;19953;-86
2022/08/05 06:33:41;;;;;;;;;;;19.00;90.10;;;;;;4976287;28;20483;-85
2022/08/05 06:36:07;;;;;;;;;;;18.90;89.40;;;;;;4989323;28;19925;-85
2022/08/05 06:38:32;;;;;;;;;;;19.00;89.10;;;;;;4983183;28;19948;-82
2022/08/05 06:40:58;;;;;;;;;;;19.00;89.40;;;;;;4970023;28;20296;-84
2022/08/05 06:43:23;;;;;;;;;;;19.10;89.10;;;;;;4980933;28;19920;-81
2022/08/05 06:45:48;;;;;;;;;;;19.10;89.10;;;;;;4982747;28;19914;-83
2022/08/05 06:48:14;;;;;;;;;;;19.00;89.00;;;;;;4997112;28;19952;-83
2022/08/05 06:50:39;;;;;;;;;;;18.80;89.00;;;;;;4970726;28;20470;-83
2022/08/05 06:53:05;;;;;;;;;;;18.60;89.80;;;;;;4970777;28;20375;-85
2022/08/05 06:55:30;;;;;;;;;;;18.70;89.30;;;;;;4982739;28;19953;-86
2022/08/05 06:57:57;;;;;;;;;;;18.70;89.30;;;;;;4985480;28;20001;-84
2022/08/05 07:00:23;;;;;;;;;;;18.60;89.00;;;;;;4972168;28;19913;-84
2022/08/05 07:02:49;;;;;;;;;;;18.50;89.80;;;;;;4971901;28;19913;-84
2022/08/05 07:05:14;;;;;;;;;;;18.50;89.10;;;;;;4970062;28;20387;-84
2022/08/05 07:07:40;;;;;;;;;;;18.50;88.60;;;;;;4969559;28;19918;-82
2022/08/05 07:10:07;;;;;;;;;;;18.40;89.00;;;;;;4987999;28;19914;-83
2022/08/05 07:18:16;;;;;;;;;;;18.20;88.70;;;;;;4995892;28;21276;-85
2022/08/05 07:20:42;;;;;;;;;;;18.10;89.10;;;;;;4989858;28;20350;-85
2022/08/05 07:23:07;;;;;;;;;;;18.10;89.90;;;;;;4991783;28;19929;-85
2022/08/05 07:25:33;;;;;;;;;;;18.10;89.70;;;;;;4992342;28;19976;-86
2022/08/05 07:27:58;;;;;;;;;;;18.10;88.70;;;;;;4983370;28;20016;-86
2022/08/05 07:30:24;;;;;;;;;;;18.20;88.80;;;;;;4990287;28;19972;-85
2022/08/05 07:32:49;;;;;;;;;;;18.20;88.30;;;;;;4974211;28;19914;-83
2022/08/05 07:35:15;;;;;;;;;;;18.30;88.30;;;;;;4992312;28;19925;-84
2022/08/05 07:37:40;;;;;;;;;;;18.30;88.70;;;;;;4968385;28;19921;-86
2022/08/05 07:40:06;;;;;;;;;;;18.20;88.10;;;;;;4996569;28;20380;-84
2022/08/05 07:42:32;;;;;;;;;;;18.10;88.30;;;;;;4985136;28;19945;-85
2022/08/05 07:44:58;;;;;;;;;;;18.20;88.30;;;;;;4984024;28;19964;-85
2022/08/05 07:47:23;;;;;;;;;;;18.20;87.10;;;;;;4970325;28;19914;-84
2022/08/05 07:49:51;;;;;;;;;;;18.00;88.50;;;;;;4985919;28;19913;-83
2022/08/05 07:52:18;;;;;;;;;;;18.10;87.90;;;;;;4968582;28;19922;-84
2022/08/05 07:54:43;;;;;;;;;;;18.10;87.90;;;;;;4985452;28;19922;-82
2022/08/05 07:57:09;;;;;;;;;;;18.10;88.30;;;;;;4983310;28;20024;-87
2022/08/05 07:59:35;;;;;;;;;;;18.20;88.70;;;;;;4965107;28;19970;-84
2022/08/05 08:02:01;;;;;;;;;;;18.20;87.70;;;;;;4971268;28;19968;-84
2022/08/05 08:04:26;;;;;;;;;;;18.30;85.90;;;;;;4990854;28;19922;-83
2022/08/05 08:06:52;;;;;;;;;;;18.20;84.90;;;;;;4973705;28;20389;-83
2022/08/05 08:09:18;;;;;;;;;;;18.20;85.40;;;;;;4987300;28;19914;-86
2022/08/05 08:11:43;;;;;;;;;;;18.10;85.70;;;;;;4965944;28;20010;-82
2022/08/05 08:14:09;;;;;;;;;;;18.10;87.00;;;;;;4971006;28;19920;-83
2022/08/05 08:16:34;;;;;;;;;;;18.20;85.40;;;;;;4990580;28;19945;-84
2022/08/05 08:19:00;;;;;;;;;;;18.20;86.80;;;;;;4995026;28;20005;-86
2022/08/05 08:21:25;;;;;;;;;;;18.10;86.10;;;;;;4971878;28;19914;-83
2022/08/05 08:23:51;;;;;;;;;;;18.10;85.90;;;;;;4987849;28;20440;-81
2022/08/05 08:26:16;;;;;;;;;;;18.20;85.20;;;;;;4988774;28;19922;-83
2022/08/05 08:28:42;;;;;;;;;;;18.20;85.60;;;;;;4964043;28;19968;-83
2022/08/05 08:31:07;;;;;;;;;;;18.20;85.30;;;;;;4986225;28;19926;-84
2022/08/05 08:33:33;;;;;;;;;;;18.20;85.80;;;;;;4971553;28;19914;-84
2022/08/05 08:35:59;;;;;;;;;;;18.10;85.40;;;;;;4966962;28;19921;-83
2022/08/05 08:38:24;;;;;;;;;;;18.10;85.90;;;;;;4990386;28;20325;-83
2022/08/05 08:40:50;;;;;;;;;;;18.10;85.30;;;;;;4972101;28;19921;-83
2022/08/05 08:43:17;;;;;;;;;;;18.10;85.80;;;;;;4972192;28;20033;-83
2022/08/05 08:45:42;;;;;;;;;;;18.20;84.80;;;;;;4991823;28;19921;-83
2022/08/05 08:48:10;;;;;;;;;;;18.10;86.10;;;;;;4980174;28;19936;-81
2022/08/05 08:50:37;;;;;;;;;;;18.20;85.40;;;;;;4981320;28;19918;-83
2022/08/05 08:53:04;;;;;;;;;;;18.20;84.60;;;;;;4969056;28;20093;-83
2022/08/05 08:55:30;;;;;;;;;;;18.10;84.30;;;;;;4983200;28;19922;-83
2022/08/05 08:57:57;;;;;;;;;;;18.20;83.60;;;;;;4969037;28;20013;-81
2022/08/05 09:00:23;;;;;;;;;;;18.10;84.00;;;;;;4990745;28;20731;-83
2022/08/05 09:02:49;;;;;;;;;;;18.10;84.20;;;;;;4988551;28;19963;-84
2022/08/05 09:05:15;;;;;;;;;;;18.10;84.00;;;;;;4968365;28;20301;-84
2022/08/05 09:07:40;;;;;;;;;;;18.00;84.80;;;;;;4973298;28;19966;-84
2022/08/05 09:10:06;;;;;;;;;;;18.10;83.70;;;;;;4960196;28;20004;-84
2022/08/05 09:12:32;;;;;;;;;;;18.10;84.50;;;;;;4968410;28;20369;-83
2022/08/05 09:14:58;;;;;;;;;;;18.10;83.90;;;;;;4990651;28;19921;-84
2022/08/05 09:17:23;;;;;;;;;;;18.20;83.30;;;;;;4987958;28;20008;-84
2022/08/05 09:19:49;;;;;;;;;;;18.20;84.40;;;;;;4970652;28;19910;-83
2022/08/05 09:22:14;;;;;;;;;;;18.30;82.70;;;;;;4972126;28;19913;-82
2022/08/05 09:24:41;;;;;;;;;;;18.40;82.60;;;;;;4984951;28;20001;-83
2022/08/05 09:27:07;;;;;;;;;;;18.50;83.60;;;;;;4971721;28;19914;-83
2022/08/05 09:29:37;;;;;;;;;;;18.50;84.10;;;;;;4966647;28;19921;-83
2022/08/05 09:32:03;;;;;;;;;;;18.50;83.50;;;;;;4973363;28;19925;-83
2022/08/05 09:34:44;;;;;;;;;;;18.60;82.20;;;;;;4987123;28;20344;-84
2022/08/05 09:37:15;;;;;;;;;;;18.60;84.00;;;;;;4992210;28;20295;-84
2022/08/05 09:39:41;;;;;;;;;;;18.70;84.10;;;;;;4984088;28;19949;-83
2022/08/05 09:42:06;;;;;;;;;;;18.80;83.20;;;;;;4967243;28;20400;-84
2022/08/05 09:44:43;;;;;;;;;;;18.80;84.00;;;;;;4959965;28;20005;-84
2022/08/05 09:47:12;;;;;;;;;;;18.80;84.90;;;;;;4990497;28;19937;-83
2022/08/05 09:49:41;;;;;;;;;;;19.00;83.80;;;;;;5017669;28;19910;-83
2022/08/05 09:52:26;;;;;;;;;;;19.10;84.10;;;;;;4996399;28;20312;-84
2022/08/05 09:54:52;;;;;;;;;;;19.10;82.80;;;;;;4994259;28;20343;-84
2022/08/05 09:57:38;;;;;;;;;;;19.10;84.50;;;;;;4976619;28;20328;-83
2022/08/05 10:00:10;;;;;;;;;;;19.00;82.10;;;;;;4973212;28;20033;-84
2022/08/05 10:02:46;;;;;;;;;;;19.10;80.60;;;;;;4961031;28;19997;-85
2022/08/05 10:05:16;;;;;;;;;;;19.00;81.70;;;;;;4974103;28;19918;-84
2022/08/05 10:07:46;;;;;;;;;;;19.00;82.10;;;;;;5002261;28;20307;-84
2022/08/05 10:10:12;;;;;;;;;;;19.00;82.80;;;;;;4967987;28;19918;-82
2022/08/05 10:12:46;;;;;;;;;;;19.00;83.10;;;;;;4980088;28;19914;-85
2022/08/05 10:15:12;;;;;;;;;;;19.10;80.20;;;;;;4990766;28;19932;-85
2022/08/05 10:17:38;;;;;;;;;;;19.00;80.80;;;;;;4970888;28;19993;-84
2022/08/05 10:20:04;;;;;;;;;;;18.90;81.10;;;;;;4986304;28;20041;-87
2022/08/05 10:22:29;;;;;;;;;;;18.80;82.70;;;;;;4969313;28;19914;-84
2022/08/05 10:24:55;;;;;;;;;;;18.90;83.90;;;;;;4970448;28;19914;-83
2022/08/05 10:27:20;;;;;;;;;;;18.80;84.00;;;;;;4973167;28;19928;-85
2022/08/05 10:29:46;;;;;;;;;;;18.80;82.60;;;;;;4973975;28;19926;-84
2022/08/05 10:32:11;;;;;;;;;;;18.70;83.00;;;;;;4971462;28;19918;-82
2022/08/05 10:34:38;;;;;;;;;;;18.80;84.40;;;;;;4986023;28;19980;-83
2022/08/05 10:37:04;;;;;;;;;;;19.10;81.10;;;;;;4987228;28;19996;-85
2022/08/05 10:39:32;;;;;;;;;;;19.10;80.70;;;;;;4974107;28;19961;-83
2022/08/05 10:41:59;;;;;;;;;;;19.10;81.30;;;;;;4965716;28;19918;-84
2022/08/05 10:44:25;;;;;;;;;;;19.10;81.30;;;;;;4987757;28;20336;-83
2022/08/05 10:46:55;;;;;;;;;;;19.20;82.20;;;;;;4970474;28;19953;-84
2022/08/05 10:49:21;;;;;;;;;;;19.30;80.10;;;;;;4963081;28;19918;-83
2022/08/05 10:51:48;;;;;;;;;;;19.20;81.20;;;;;;4959039;28;19957;-83
2022/08/05 10:54:14;;;;;;;;;;;19.30;80.60;;;;;;4980291;28;20005;-83
2022/08/05 10:56:44;;;;;;;;;;;19.30;82.00;;;;;;4975493;28;19914;-83
2022/08/05 10:59:09;;;;;;;;;;;19.50;80.80;;;;;;4994797;28;19913;-83
2022/08/05 11:01:40;;;;;;;;;;;19.80;80.90;;;;;;4977118;28;19980;-84
2022/08/05 11:04:13;;;;;;;;;;;20.10;80.60;;;;;;4989252;28;19921;-83
2022/08/05 11:06:59;;;;;;;;;;;20.10;75.90;;;;;;4985067;28;20325;-83
2022/08/05 11:09:35;;;;;;;;;;;20.20;78.10;;;;;;4995455;28;20443;-82
2022/08/05 11:12:01;;;;;;;;;;;20.30;77.50;;;;;;4999902;28;19976;-83
2022/08/05 11:14:28;;;;;;;;;;;20.20;74.00;;;;;;4993219;28;19922;-82
2022/08/05 11:17:12;;;;;;;;;;;20.40;74.80;;;;;;4994424;28;19920;-83
2022/08/05 11:19:44;;;;;;;;;;;20.40;76.00;;;;;;5013594;28;19941;-82
2022/08/05 11:22:28;;;;;;;;;;;20.50;76.10;;;;;;4978502;28;19977;-84
2022/08/05 11:25:20;;;;;;;;;;;20.50;74.30;;;;;;4977318;28;19922;-83
2022/08/05 11:27:45;;;;;;;;;;;20.40;72.20;;;;;;4957890;28;19914;-83
2022/08/05 11:30:10;;;;;;;;;;;20.00;75.10;;;;;;4968991;28;19942;-84
2022/08/05 11:32:36;;;;;;;;;;;20.00;78.30;;;;;;4991563;28;19921;-84
2022/08/05 11:35:01;;;;;;;;;;;20.10;78.10;;;;;;4973495;28;19921;-83
2022/08/05 11:37:40;;;;;;;;;;;20.20;79.00;;;;;;4990494;28;20285;-84
2022/08/05 11:40:06;;;;;;;;;;;20.30;74.30;;;;;;4990700;28;19914;-85
2022/08/05 11:42:35;;;;;;;;;;;20.30;73.20;;;;;;4963787;28;20013;-86
2022/08/05 11:45:02;;;;;;;;;;;20.40;70.40;;;;;;4970507;28;19980;-84
2022/08/05 11:47:28;;;;;;;;;;;20.60;70.50;;;;;;4989490;28;19914;-84
2022/08/05 11:49:59;;;;;;;;;;;20.90;71.60;;;;;;4988871;28;19924;-85
2022/08/05 11:52:25;;;;;;;;;;;21.00;69.20;;;;;;4966606;28;19918;-85
2022/08/05 11:54:51;;;;;;;;;;;21.10;72.30;;;;;;4982102;28;19940;-84
2022/08/05 11:57:17;;;;;;;;;;;21.10;70.40;;;;;;4981449;28;19921;-84
2022/08/05 11:59:42;;;;;;;;;;;21.30;70.20;;;;;;4991050;28;19914;-84
2022/08/05 12:02:08;;;;;;;;;;;21.40;70.00;;;;;;4973879;28;19937;-86
2022/08/05 12:04:43;;;;;;;;;;;21.50;68.00;;;;;;4993716;28;19920;-85
2022/08/05 12:07:10;;;;;;;;;;;21.60;68.80;;;;;;4988011;28;19918;-85
2022/08/05 12:09:36;;;;;;;;;;;21.40;66.60;;;;;;4977588;28;19914;-85
2022/08/05 12:12:03;;;;;;;;;;;21.20;66.30;;;;;;5059551;22;19928;-79
2022/08/05 12:14:39;;;;;;;;;;;21.10;67.70;;;;;;5087986;28;19923;-79
2022/08/05 12:17:12;;;;;;;;;;;21.20;68.20;;;;;;5094762;28;20481;-79
2022/08/05 12:19:42;;;;;;;;;;;21.30;66.70;;;;;;5094879;28;19930;-78
2022/08/05 12:22:07;;;;;;;;;;;21.30;67.00;;;;;;5084021;28;19975;-80
2022/08/05 12:24:33;;;;;;;;;;;21.20;69.40;;;;;;5059291;28;20677;-78
2022/08/05 12:26:59;;;;;;;;;;;21.20;68.90;;;;;;5069065;28;19951;-79
2022/08/05 12:29:26;;;;;;;;;;;21.20;68.90;;;;;;5056662;28;19920;-80
2022/08/05 12:31:52;;;;;;;;;;;21.30;67.80;;;;;;5065252;28;20062;-80
2022/08/05 12:34:19;;;;;;;;;;;21.60;67.60;;;;;;5075488;28;19916;-86
2022/08/05 12:36:45;;;;;;;;;;;21.50;67.60;;;;;;5045049;28;19913;-81
2022/08/05 12:39:11;;;;;;;;;;;21.60;67.30;;;;;;5064188;28;19912;-82
2022/08/05 12:41:38;;;;;;;;;;;21.40;67.80;;;;;;5045330;28;19919;-82
2022/08/05 12:44:05;;;;;;;;;;;21.40;66.50;;;;;;5049949;28;19945;-80
2022/08/05 12:46:31;;;;;;;;;;;21.40;68.50;;;;;;5065046;28;19934;-80
2022/08/05 12:48:58;;;;;;;;;;;21.50;69.30;;;;;;5060178;28;19924;-81
2022/08/05 12:51:23;;;;;;;;;;;21.50;69.00;;;;;;5043548;28;19931;-82
2022/08/05 12:53:49;;;;;;;;;;;21.60;68.30;;;;;;5042974;28;19912;-82
2022/08/05 12:56:15;;;;;;;;;;;21.70;67.60;;;;;;5061583;28;19965;-80
2022/08/05 12:58:40;;;;;;;;;;;21.80;68.30;;;;;;5049088;28;20410;-80
2022/08/05 13:01:06;;;;;;;;;;;21.80;68.10;;;;;;5071278;28;19913;-80
2022/08/05 13:03:33;;;;;;;;;;;22.00;68.90;;;;;;5047025;28;19923;-81
2022/08/05 13:06:00;;;;;;;;;;;22.10;66.80;;;;;;5061834;28;19920;-80
2022/08/05 13:08:26;;;;;;;;;;;22.00;66.40;;;;;;5068489;28;19980;-80
2022/08/05 13:10:57;;;;;;;;;;;21.90;66.40;;;;;;5070665;28;19943;-81
2022/08/05 13:13:25;;;;;;;;;;;21.60;70.00;;;;;;5054681;28;19916;-80
2022/08/05 13:15:51;;;;;;;;;;;21.50;67.10;;;;;;5071029;28;19916;-80
2022/08/05 13:18:17;;;;;;;;;;;21.50;67.40;;;;;;5057904;28;19966;-80
2022/08/05 13:20:42;;;;;;;;;;;21.30;66.30;;;;;;5046779;28;19920;-80
2022/08/05 13:23:08;;;;;;;;;;;21.30;67.00;;;;;;5060701;28;19912;-81
2022/08/05 13:25:34;;;;;;;;;;;21.20;68.60;;;;;;5058287;28;21455;-82
2022/08/05 13:28:00;;;;;;;;;;;21.40;66.60;;;;;;5049275;28;19921;-81
2022/08/05 13:30:25;;;;;;;;;;;21.50;69.60;;;;;;5053524;28;19913;-81
2022/08/05 13:32:51;;;;;;;;;;;21.50;68.90;;;;;;5065248;28;19966;-82
2022/08/05 13:35:19;;;;;;;;;;;21.60;67.30;;;;;;5045620;28;20063;-82
2022/08/05 13:37:44;;;;;;;;;;;21.70;66.00;;;;;;5060091;28;19916;-81
2022/08/05 13:40:10;;;;;;;;;;;21.70;66.10;;;;;;5059096;28;19935;-81
2022/08/05 13:42:36;;;;;;;;;;;21.70;65.40;;;;;;5058718;28;19921;-80
2022/08/05 13:45:02;;;;;;;;;;;21.70;68.10;;;;;;5044576;28;19923;-81
2022/08/05 13:47:28;;;;;;;;;;;22.10;63.10;;;;;;5041818;28;19921;-81
2022/08/05 13:49:53;;;;;;;;;;;22.30;63.50;;;;;;5056412;28;19913;-82
2022/08/05 13:52:20;;;;;;;;;;;22.40;63.00;;;;;;5057883;28;19925;-82
2022/08/05 13:54:46;;;;;;;;;;;22.50;65.90;;;;;;5049338;28;20021;-82
2022/08/05 13:57:12;;;;;;;;;;;22.80;64.50;;;;;;5046211;28;20337;-82
2022/08/05 13:59:38;;;;;;;;;;;22.90;60.20;;;;;;5065124;28;19928;-83
2022/08/05 14:02:04;;;;;;;;;;;23.10;58.60;;;;;;5048341;28;20375;-83
2022/08/05 14:07:15;;;;;;;;;;;22.70;59.60;;;;;;5075093;28;19961;-80
2022/08/05 14:09:40;;;;;;;;;;;22.20;61.30;;;;;;5050044;28;19913;-80
2022/08/05 14:12:06;;;;;;;;;;;22.00;62.70;;;;;;5067296;28;19927;-80
2022/08/05 14:14:31;;;;;;;;;;;21.70;63.30;;;;;;5050619;28;19938;-82
2022/08/05 14:16:57;;;;;;;;;;;21.60;62.40;;;;;;5069794;28;20012;-82
2022/08/05 14:19:22;;;;;;;;;;;21.40;64.00;;;;;;5058616;28;19913;-81
2022/08/05 14:21:47;;;;;;;;;;;21.20;63.30;;;;;;5041650;28;19939;-82
2022/08/05 14:24:13;;;;;;;;;;;21.20;63.10;;;;;;5044343;28;19919;-81
2022/08/05 14:26:38;;;;;;;;;;;21.10;61.90;;;;;;5045011;28;19921;-80